createdAt,value
2022-10-19T00:01:26.428Z,73.60
2022-10-19T00:04:31.681Z,73.30
2022-10-19T00:07:35.285Z,73.30
2022-10-19T00:10:43.291Z,73.10
2022-10-19T00:13:47.307Z,73.20
2022-10-19T00:16:54.444Z,73.40
2022-10-19T00:19:59.543Z,74.00
2022-10-19T00:23:05.211Z,73.60
2022-10-19T00:26:10.459Z,74.30
2022-10-19T00:29:15.014Z,73.80
2022-10-19T00:32:20.215Z,73.80
2022-10-19T00:35:25.060Z,73.70
2022-10-19T00:38:28.325Z,73.80
2022-10-19T00:41:37.488Z,73.60
2022-10-19T00:45:06.835Z,72.90
2022-10-19T00:48:16.654Z,73.10
2022-10-19T00:51:24.235Z,73.00
2022-10-19T00:54:27.489Z,73.20
2022-10-19T00:57:34.012Z,73.10
2022-10-19T01:00:38.017Z,73.20
2022-10-19T01:03:42.053Z,73.10
2022-10-19T01:06:46.696Z,73.20
2022-10-19T01:09:52.398Z,73.20
2022-10-19T01:13:16.223Z,73.10
2022-10-19T01:16:32.605Z,73.30
2022-10-19T01:20:31.821Z,73.20
2022-10-19T01:24:39.839Z,73.60
2022-10-19T01:28:20.220Z,73.80
2022-10-19T01:31:36.692Z,73.90
2022-10-19T01:34:49.807Z,73.60
2022-10-19T01:38:07.875Z,73.70
2022-10-19T01:41:19.615Z,74.00
2022-10-19T01:44:29.659Z,74.00
2022-10-19T01:47:44.550Z,74.00
2022-10-19T01:50:54.874Z,74.00
2022-10-19T01:54:07.782Z,73.80
2022-10-19T01:57:17.947Z,73.70
2022-10-19T02:00:25.988Z,73.80
2022-10-19T02:03:33.632Z,73.80
2022-10-19T02:06:37.790Z,73.70
2022-10-19T02:09:41.221Z,73.80
2022-10-19T02:12:46.275Z,74.90
2022-10-19T02:15:58.084Z,73.90
2022-10-19T02:19:08.668Z,74.20
2022-10-19T02:22:15.646Z,74.40
2022-10-19T02:25:19.462Z,74.40
2022-10-19T02:31:34.132Z,74.70
2022-10-19T02:34:41.728Z,74.60
2022-10-19T02:37:45.901Z,75.20
2022-10-19T02:40:54.994Z,75.20
2022-10-19T02:44:05.096Z,76.10
2022-10-19T02:47:15.719Z,75.00
2022-10-19T02:50:23.086Z,74.80
2022-10-19T02:53:26.044Z,74.80
2022-10-19T02:56:31.513Z,75.20
2022-10-19T02:59:36.987Z,74.60
2022-10-19T03:02:40.879Z,74.60
2022-10-19T03:05:46.047Z,74.50
2022-10-19T03:08:49.776Z,74.50
2022-10-19T03:11:54.034Z,74.40
2022-10-19T03:14:57.336Z,74.40
2022-10-19T03:18:00.221Z,74.90
2022-10-19T03:21:10.416Z,74.10
2022-10-19T03:24:14.946Z,74.20
2022-10-19T03:27:18.468Z,74.00
2022-10-19T03:30:22.324Z,74.00
2022-10-19T03:36:41.550Z,74.00
2022-10-19T03:39:44.799Z,74.10
2022-10-19T03:42:48.177Z,73.90
2022-10-19T03:45:52.545Z,74.00
2022-10-19T03:48:55.964Z,74.00
2022-10-19T03:52:00.188Z,73.90
2022-10-19T03:55:03.314Z,73.80
2022-10-19T03:58:08.109Z,73.80
2022-10-19T04:01:15.852Z,73.70
2022-10-19T04:04:21.678Z,74.20
2022-10-19T04:07:27.091Z,73.50
2022-10-19T04:10:34.482Z,73.40
2022-10-19T04:13:39.597Z,73.50
2022-10-19T04:16:42.955Z,73.50
2022-10-19T04:19:46.436Z,73.60
2022-10-19T04:22:53.704Z,73.50
2022-10-19T04:26:06.542Z,73.40
2022-10-19T04:29:11.135Z,73.40
2022-10-19T04:32:15.109Z,73.30
2022-10-19T04:35:18.874Z,73.30
2022-10-19T04:38:23.235Z,73.40
2022-10-19T04:41:26.988Z,73.30
2022-10-19T04:44:30.994Z,73.40
2022-10-19T04:47:35.205Z,73.50
2022-10-19T04:50:38.825Z,73.50
2022-10-19T04:53:45.471Z,73.30
2022-10-19T04:56:49.965Z,73.30
2022-10-19T04:59:53.015Z,73.30
2022-10-19T05:02:55.915Z,73.60
2022-10-19T05:06:00.486Z,73.40
2022-10-19T05:09:06.292Z,73.50
2022-10-19T05:12:09.975Z,73.70
2022-10-19T05:15:13.922Z,73.60
2022-10-19T05:18:17.000Z,72.70
2022-10-19T05:21:23.314Z,73.20
2022-10-19T05:24:29.273Z,73.10
2022-10-19T05:27:33.030Z,73.10
2022-10-19T05:30:36.976Z,73.10
2022-10-19T05:33:42.282Z,73.00
2022-10-19T05:36:45.447Z,73.10
2022-10-19T05:39:49.846Z,73.10
2022-10-19T05:42:53.071Z,73.30
2022-10-19T05:45:57.867Z,73.90
2022-10-19T05:49:05.794Z,73.30
2022-10-19T05:52:09.769Z,73.60
2022-10-19T05:55:15.027Z,73.70
2022-10-19T05:58:19.115Z,73.90
2022-10-19T06:01:22.117Z,73.90
2022-10-19T06:04:27.662Z,74.20
2022-10-19T06:07:31.479Z,73.40
2022-10-19T06:10:36.480Z,73.30
2022-10-19T06:13:43.350Z,73.40
2022-10-19T06:16:46.764Z,73.40
2022-10-19T06:19:49.866Z,73.50
2022-10-19T06:22:56.063Z,73.70
2022-10-19T06:26:03.497Z,73.70
2022-10-19T06:29:07.253Z,73.90
2022-10-19T06:32:10.262Z,73.80
2022-10-19T06:35:14.105Z,73.80
2022-10-19T06:38:17.901Z,74.10
2022-10-19T06:41:24.015Z,74.40
2022-10-19T06:44:27.283Z,74.50
2022-10-19T06:47:33.342Z,74.70
2022-10-19T06:50:36.809Z,74.10
2022-10-19T06:53:40.856Z,74.40
2022-10-19T06:56:45.338Z,74.80
2022-10-19T06:59:52.883Z,75.00
2022-10-19T07:02:59.645Z,75.10
2022-10-19T07:06:06.094Z,75.00
2022-10-19T07:09:09.020Z,75.50
2022-10-19T07:12:13.365Z,75.60
2022-10-19T07:15:16.855Z,75.80
2022-10-19T07:18:21.279Z,76.20
2022-10-19T07:21:24.755Z,75.90
2022-10-19T07:24:28.584Z,75.80
2022-10-19T07:27:40.626Z,75.80
2022-10-19T07:30:45.975Z,75.80
2022-10-19T07:33:55.626Z,75.50
2022-10-19T07:37:00.111Z,75.60
2022-10-19T07:40:04.556Z,75.50
2022-10-19T07:43:09.575Z,75.30
2022-10-19T07:46:17.546Z,75.20
2022-10-19T07:49:22.400Z,75.40
2022-10-19T07:52:27.057Z,74.70
2022-10-19T07:55:31.267Z,74.50
2022-10-19T07:58:36.406Z,74.30
2022-10-19T08:01:43.884Z,74.00
2022-10-19T08:05:07.449Z,73.80
2022-10-19T08:08:11.282Z,73.50
2022-10-19T08:11:18.148Z,73.20
2022-10-19T08:14:24.319Z,72.80
2022-10-19T08:17:27.291Z,72.80
2022-10-19T08:20:32.943Z,72.60
2022-10-19T08:23:37.480Z,72.30
2022-10-19T08:26:42.898Z,72.40
2022-10-19T08:29:47.383Z,71.50
2022-10-19T08:32:50.312Z,71.10
2022-10-19T08:35:55.054Z,70.70
2022-10-19T08:38:59.866Z,70.00
2022-10-19T08:42:08.340Z,69.80
2022-10-19T08:45:42.680Z,69.50
2022-10-19T08:48:47.242Z,67.40
2022-10-19T08:51:57.093Z,68.50
2022-10-19T08:55:04.724Z,67.70
2022-10-19T08:58:32.787Z,66.80
2022-10-19T09:01:44.909Z,64.70
2022-10-19T09:04:55.909Z,65.00
2022-10-19T09:08:00.242Z,65.20
2022-10-19T09:11:03.361Z,65.20
2022-10-19T09:14:15.877Z,65.10
2022-10-19T09:17:21.858Z,64.50
2022-10-19T09:20:36.526Z,64.40
2022-10-19T09:23:44.738Z,64.30
2022-10-19T09:26:55.610Z,64.10
2022-10-19T09:30:03.715Z,63.30
2022-10-19T09:33:28.466Z,63.20
2022-10-19T09:36:49.981Z,61.90
2022-10-19T09:39:55.611Z,62.20
2022-10-19T09:43:08.752Z,63.80
2022-10-19T09:46:20.438Z,62.80
2022-10-19T09:49:43.056Z,62.70
2022-10-19T09:52:48.904Z,61.30
2022-10-19T09:56:00.910Z,62.50
2022-10-19T09:59:04.519Z,61.60
2022-10-19T10:02:19.096Z,61.90
2022-10-19T10:05:35.298Z,59.80
2022-10-19T10:08:48.713Z,59.60
2022-10-19T10:15:08.595Z,60.20
2022-10-19T10:18:17.645Z,59.50
2022-10-19T10:21:27.565Z,58.70
2022-10-19T10:24:34.604Z,57.30
2022-10-19T10:27:41.523Z,57.30
2022-10-19T10:30:47.913Z,57.70
2022-10-19T10:34:10.764Z,57.40
2022-10-19T10:37:43.452Z,56.90
2022-10-19T10:40:55.371Z,57.10
2022-10-19T10:44:05.084Z,57.00
2022-10-19T10:47:19.828Z,57.70
2022-10-19T10:50:32.889Z,56.80
2022-10-19T10:53:45.429Z,57.30
2022-10-19T10:57:13.129Z,56.20
2022-10-19T11:00:20.844Z,55.50
2022-10-19T11:03:28.864Z,56.80
2022-10-19T11:06:39.595Z,56.60
2022-10-19T11:09:55.458Z,56.40
2022-10-19T11:13:09.538Z,56.00
2022-10-19T11:16:18.022Z,55.30
2022-10-19T11:19:27.265Z,55.90
2022-10-19T11:22:39.801Z,55.40
2022-10-19T11:26:08.523Z,56.00
2022-10-19T11:29:36.785Z,54.20
2022-10-19T11:33:03.783Z,54.10
2022-10-19T11:36:21.429Z,52.50
2022-10-19T11:39:44.100Z,53.70
2022-10-19T11:43:04.887Z,52.70
2022-10-19T11:46:18.243Z,51.30
2022-10-19T11:49:40.803Z,51.30
2022-10-19T11:52:57.599Z,50.90
2022-10-19T11:56:11.939Z,51.60
2022-10-19T11:59:33.218Z,52.10
2022-10-19T12:03:10.964Z,51.90
2022-10-19T12:06:29.404Z,50.80
2022-10-19T12:09:53.783Z,51.00
2022-10-19T12:13:04.659Z,51.30
2022-10-19T12:16:14.363Z,51.40
2022-10-19T12:19:23.471Z,51.60
2022-10-19T12:22:31.203Z,51.50
2022-10-19T12:25:39.734Z,51.80
2022-10-19T12:28:51.176Z,51.70
2022-10-19T12:31:59.593Z,51.60
2022-10-19T12:35:23.153Z,51.00
2022-10-19T12:38:44.023Z,49.40
2022-10-19T12:42:04.687Z,50.10
2022-10-19T12:45:30.287Z,49.90
2022-10-19T12:48:36.735Z,49.50
2022-10-19T12:51:48.879Z,50.20
2022-10-19T12:54:51.821Z,48.70
2022-10-19T12:58:05.588Z,49.70
2022-10-19T13:01:16.940Z,48.70
2022-10-19T13:04:27.768Z,48.80
2022-10-19T13:11:26.917Z,49.10
2022-10-19T13:14:50.130Z,47.30
2022-10-19T13:17:53.933Z,48.20
2022-10-19T13:21:03.614Z,49.90
2022-10-19T13:24:31.817Z,49.90
2022-10-19T13:27:40.318Z,49.30
2022-10-19T13:31:06.956Z,50.00
2022-10-19T13:35:14.300Z,49.60
2022-10-19T13:38:38.738Z,49.30
2022-10-19T13:42:01.917Z,50.20
2022-10-19T13:45:26.192Z,50.50
2022-10-19T13:54:14.843Z,49.20
2022-10-19T13:58:05.257Z,49.80
2022-10-19T14:01:46.295Z,49.60
2022-10-19T14:05:48.562Z,50.70
2022-10-19T14:09:50.742Z,50.10
2022-10-19T14:13:16.079Z,49.80
2022-10-19T14:16:49.405Z,50.70
2022-10-19T14:20:34.650Z,50.10
2022-10-19T14:23:58.390Z,50.10
2022-10-19T14:27:26.161Z,51.40
2022-10-19T14:30:58.170Z,50.80
2022-10-19T14:39:33.792Z,50.20
2022-10-19T14:43:00.289Z,50.80
2022-10-19T14:46:27.573Z,51.50
2022-10-19T15:00:20.975Z,50.90
2022-10-19T15:03:46.862Z,51.50
2022-10-19T15:06:50.715Z,52.00
2022-10-19T15:09:58.995Z,52.00
2022-10-19T15:13:07.388Z,51.90
2022-10-19T15:16:33.493Z,52.00
2022-10-19T15:19:42.455Z,51.80
2022-10-19T15:22:48.968Z,52.10
2022-10-19T15:26:00.936Z,52.40
2022-10-19T15:29:20.199Z,52.20
2022-10-19T15:32:31.892Z,52.40
2022-10-19T15:35:38.965Z,52.70
2022-10-19T15:38:42.387Z,52.90
2022-10-19T15:41:45.530Z,52.90
2022-10-19T15:44:48.709Z,53.00
2022-10-19T15:48:29.179Z,53.00
2022-10-19T15:51:43.430Z,52.80
2022-10-19T15:54:51.107Z,53.20
2022-10-19T15:58:00.127Z,53.40
2022-10-19T16:01:03.328Z,53.50
2022-10-19T16:04:08.444Z,53.80
2022-10-19T16:07:16.866Z,53.90
2022-10-19T16:10:24.575Z,54.10
2022-10-19T16:13:27.675Z,54.20
2022-10-19T16:16:33.942Z,54.40
2022-10-19T16:19:38.438Z,54.50
2022-10-19T16:22:41.565Z,54.70
2022-10-19T16:25:44.806Z,55.00
2022-10-19T16:28:49.250Z,55.10
2022-10-19T16:31:54.366Z,55.20
2022-10-19T16:34:58.810Z,55.70
2022-10-19T16:38:01.926Z,55.50
2022-10-19T16:41:08.238Z,55.70
2022-10-19T16:44:13.443Z,55.80
2022-10-19T16:47:17.014Z,56.00
2022-10-19T16:50:22.161Z,56.20
2022-10-19T16:53:25.429Z,56.30
2022-10-19T16:56:32.094Z,56.40
2022-10-19T16:59:35.331Z,56.70
2022-10-19T17:02:41.939Z,56.80
2022-10-19T17:05:49.177Z,57.10
2022-10-19T17:12:20.073Z,57.60
2022-10-19T17:15:42.151Z,57.70
2022-10-19T17:18:47.028Z,57.40
2022-10-19T17:21:51.548Z,58.00
2022-10-19T17:24:55.506Z,58.30
2022-10-19T17:27:58.626Z,58.40
2022-10-19T17:31:06.277Z,58.80
2022-10-19T17:34:10.531Z,58.80
2022-10-19T17:37:15.007Z,59.00
2022-10-19T17:40:18.398Z,59.40
2022-10-19T17:43:21.609Z,59.30
2022-10-19T17:46:28.398Z,59.50
2022-10-19T17:49:31.611Z,59.80
2022-10-19T17:52:39.362Z,59.80
2022-10-19T17:55:42.516Z,60.10
2022-10-19T17:58:46.325Z,60.10
2022-10-19T18:01:49.610Z,60.30
2022-10-19T18:04:52.920Z,60.50
2022-10-19T18:07:58.379Z,60.50
2022-10-19T18:11:04.344Z,60.30
2022-10-19T18:14:09.896Z,60.70
2022-10-19T18:22:16.484Z,61.90
2022-10-19T18:25:25.853Z,61.20
2022-10-19T18:28:40.517Z,61.70
2022-10-19T18:31:43.797Z,61.50
2022-10-19T18:34:46.980Z,61.80
2022-10-19T18:37:50.567Z,61.80
2022-10-19T18:40:56.274Z,61.80
2022-10-19T18:44:03.560Z,62.20
2022-10-19T18:47:06.637Z,61.90
2022-10-19T18:50:12.947Z,62.00
2022-10-19T18:53:16.345Z,62.20
2022-10-19T18:56:24.063Z,62.40
2022-10-19T19:02:42.366Z,62.80
2022-10-19T19:05:49.498Z,62.90
2022-10-19T19:08:55.105Z,63.10
2022-10-19T19:12:01.189Z,63.00
2022-10-19T19:15:08.087Z,64.30
2022-10-19T19:18:11.271Z,63.60
2022-10-19T19:21:18.704Z,63.60
2022-10-19T19:24:27.954Z,63.80
2022-10-19T19:27:32.520Z,63.70
2022-10-19T19:30:35.795Z,63.90
2022-10-19T19:33:38.983Z,63.90
2022-10-19T19:36:47.289Z,64.00
2022-10-19T19:39:51.034Z,64.70
2022-10-19T19:42:55.815Z,64.10
2022-10-19T19:46:04.562Z,64.40
2022-10-19T19:49:11.226Z,64.40
2022-10-19T19:52:14.554Z,64.50
2022-10-19T19:55:18.067Z,64.60
2022-10-19T19:58:22.996Z,64.60
2022-10-19T20:01:27.275Z,64.70
2022-10-19T20:04:30.413Z,64.80
2022-10-19T20:07:34.007Z,64.90
2022-10-19T20:10:40.599Z,64.80
2022-10-19T20:13:46.113Z,64.90
2022-10-19T20:16:49.384Z,64.90
2022-10-19T20:19:52.616Z,64.80
2022-10-19T20:22:55.729Z,64.90
2022-10-19T20:25:59.280Z,64.90
2022-10-19T20:29:05.751Z,65.00
2022-10-19T20:32:08.782Z,64.90
2022-10-19T20:35:13.535Z,66.10
2022-10-19T20:38:16.630Z,67.00
2022-10-19T20:41:23.708Z,67.00
2022-10-19T20:44:28.335Z,66.80
2022-10-19T20:47:32.486Z,66.90
2022-10-19T20:50:36.153Z,67.00
2022-10-19T20:53:39.832Z,66.90
2022-10-19T20:56:43.319Z,66.70
2022-10-19T20:59:48.006Z,66.60
2022-10-19T21:02:53.780Z,66.40
2022-10-19T21:05:56.939Z,67.20
2022-10-19T21:09:00.814Z,67.40
2022-10-19T21:12:03.975Z,67.50
2022-10-19T21:15:09.898Z,67.50
2022-10-19T21:18:13.516Z,67.80
2022-10-19T21:21:21.666Z,67.70
2022-10-19T21:24:28.522Z,66.80
2022-10-19T21:27:31.569Z,66.20
2022-10-19T21:30:38.733Z,66.30
2022-10-19T21:33:41.871Z,66.50
2022-10-19T21:36:44.884Z,66.20
2022-10-19T21:39:48.048Z,66.60
2022-10-19T21:42:51.152Z,66.70
2022-10-19T21:45:56.281Z,66.40
2022-10-19T21:49:00.302Z,66.20
2022-10-19T21:52:03.512Z,65.90
2022-10-19T21:55:08.247Z,65.90
2022-10-19T21:58:11.306Z,66.00
2022-10-19T22:01:16.502Z,65.80
2022-10-19T22:04:20.451Z,65.80
2022-10-19T22:07:23.952Z,66.10
2022-10-19T22:10:27.313Z,66.40
2022-10-19T22:13:31.006Z,66.40
2022-10-19T22:16:36.796Z,66.50
2022-10-19T22:19:40.278Z,66.30
2022-10-19T22:22:43.535Z,66.20
2022-10-19T22:25:47.733Z,66.70
2022-10-19T22:28:50.712Z,67.00
2022-10-19T22:31:55.837Z,68.30
2022-10-19T22:34:59.072Z,66.90
2022-10-19T22:38:02.551Z,66.60
2022-10-19T22:41:05.650Z,66.00
2022-10-19T22:44:08.851Z,65.80
2022-10-19T22:47:13.533Z,66.50
2022-10-19T22:50:16.664Z,66.40
2022-10-19T22:53:19.757Z,66.70
2022-10-19T22:56:23.171Z,66.40
2022-10-19T22:59:26.319Z,66.60
2022-10-19T23:02:31.983Z,66.90
2022-10-19T23:05:35.368Z,66.20
2022-10-19T23:08:39.029Z,66.20
2022-10-19T23:11:42.110Z,66.40
2022-10-19T23:14:45.371Z,66.30
2022-10-19T23:17:49.876Z,66.50
2022-10-19T23:20:57.579Z,66.50
2022-10-19T23:24:00.682Z,66.30
2022-10-19T23:27:03.880Z,66.40
2022-10-19T23:30:08.287Z,66.40
2022-10-19T23:33:12.680Z,66.30
2022-10-19T23:36:19.999Z,66.50
2022-10-19T23:39:23.321Z,66.90
2022-10-19T23:42:26.672Z,66.40
2022-10-19T23:45:30.152Z,66.50
2022-10-19T23:48:35.360Z,66.70
2022-10-19T23:51:38.973Z,66.60
2022-10-19T23:54:41.979Z,66.40
2022-10-19T23:57:44.972Z,66.40
